sensor_id;sensor_type;location;lat;lon;timestamp;pressure;altitude;pressure_sealevel;temperature;humidity
77043;BME280;65975;53.936;27.540;2023-03-08T00:00:16;97220.81;;;0.00;69.17
77043;BME280;65975;53.936;27.540;2023-03-08T00:02:42;97229.06;;;0.18;69.68
77043;BME280;65975;53.936;27.540;2023-03-08T00:05:08;97242.63;;;0.26;69.44
77043;BME280;65975;53.936;27.540;2023-03-08T00:07:34;97230.81;;;0.14;69.27
77043;BME280;65975;53.936;27.540;2023-03-08T00:10:00;97230.88;;;0.13;69.55
77043;BME280;65975;53.936;27.540;2023-03-08T00:12:25;97220.00;;;0.40;68.79
77043;BME280;65975;53.936;27.540;2023-03-08T00:14:51;97207.38;;;0.28;68.99
77043;BME280;65975;53.936;27.540;2023-03-08T00:17:17;97195.44;;;0.25;70.10
77043;BME280;65975;53.936;27.540;2023-03-08T00:19:43;97199.78;;;0.23;69.64
77043;BME280;65975;53.936;27.540;2023-03-08T00:22:09;97205.41;;;0.39;69.77
77043;BME280;65975;53.936;27.540;2023-03-08T00:24:35;97202.56;;;0.53;69.46
77043;BME280;65975;53.936;27.540;2023-03-08T00:27:01;97188.00;;;0.52;69.68
77043;BME280;65975;53.936;27.540;2023-03-08T00:29:26;97190.34;;;0.62;68.80
77043;BME280;65975;53.936;27.540;2023-03-08T00:31:52;97183.84;;;0.83;68.50
77043;BME280;65975;53.936;27.540;2023-03-08T00:34:17;97174.31;;;0.87;68.17
77043;BME280;65975;53.936;27.540;2023-03-08T00:36:43;97169.72;;;0.62;69.61
77043;BME280;65975;53.936;27.540;2023-03-08T00:39:10;97134.88;;;0.48;69.47
77043;BME280;65975;53.936;27.540;2023-03-08T00:41:36;97163.44;;;0.74;69.60
77043;BME280;65975;53.936;27.540;2023-03-08T00:44:02;97154.88;;;0.73;70.33
77043;BME280;65975;53.936;27.540;2023-03-08T00:46:28;97150.38;;;0.82;71.32
77043;BME280;65975;53.936;27.540;2023-03-08T00:48:53;97152.28;;;0.73;73.17
77043;BME280;65975;53.936;27.540;2023-03-08T00:51:19;97139.19;;;0.84;72.89
77043;BME280;65975;53.936;27.540;2023-03-08T00:53:45;97138.56;;;0.73;74.50
77043;BME280;65975;53.936;27.540;2023-03-08T00:56:11;97127.81;;;0.91;75.02
77043;BME280;65975;53.936;27.540;2023-03-08T00:58:38;97139.25;;;0.79;75.44
77043;BME280;65975;53.936;27.540;2023-03-08T01:01:05;97126.03;;;0.95;75.08
77043;BME280;65975;53.936;27.540;2023-03-08T01:03:31;97118.31;;;0.93;76.38
77043;BME280;65975;53.936;27.540;2023-03-08T01:05:57;97112.69;;;1.11;75.78
77043;BME280;65975;53.936;27.540;2023-03-08T01:08:25;97129.41;;;0.97;76.50
77043;BME280;65975;53.936;27.540;2023-03-08T01:10:52;97111.47;;;0.92;76.62
77043;BME280;65975;53.936;27.540;2023-03-08T01:13:19;97106.91;;;1.03;76.81
77043;BME280;65975;53.936;27.540;2023-03-08T01:15:45;97103.56;;;1.00;77.56
77043;BME280;65975;53.936;27.540;2023-03-08T01:18:11;97092.78;;;1.18;76.50
77043;BME280;65975;53.936;27.540;2023-03-08T01:20:37;97072.34;;;1.10;77.26
77043;BME280;65975;53.936;27.540;2023-03-08T01:23:02;97097.50;;;1.35;76.14
77043;BME280;65975;53.936;27.540;2023-03-08T01:25:28;97094.34;;;1.24;77.37
77043;BME280;65975;53.936;27.540;2023-03-08T01:27:54;97085.84;;;1.20;77.98
77043;BME280;65975;53.936;27.540;2023-03-08T01:30:19;97089.25;;;1.22;77.93
77043;BME280;65975;53.936;27.540;2023-03-08T01:32:45;97083.41;;;1.15;78.21
77043;BME280;65975;53.936;27.540;2023-03-08T01:35:11;96924.31;;;0.26;78.25
77043;BME280;65975;53.936;27.540;2023-03-08T01:37:36;96929.75;;;0.50;76.87
77043;BME280;65975;53.936;27.540;2023-03-08T01:40:03;97084.78;;;1.29;78.26
77043;BME280;65975;53.936;27.540;2023-03-08T01:42:29;97081.25;;;1.31;78.73
77043;BME280;65975;53.936;27.540;2023-03-08T01:45:01;97070.22;;;1.26;78.97
77043;BME280;65975;53.936;27.540;2023-03-08T01:47:32;97068.97;;;1.08;79.59
77043;BME280;65975;53.936;27.540;2023-03-08T01:50:07;97042.16;;;1.15;79.30
77043;BME280;65975;53.936;27.540;2023-03-08T01:52:38;97058.75;;;1.05;80.13
77043;BME280;65975;53.936;27.540;2023-03-08T01:55:09;97060.25;;;1.14;80.05
77043;BME280;65975;53.936;27.540;2023-03-08T01:57:39;97065.16;;;1.23;80.49
77043;BME280;65975;53.936;27.540;2023-03-08T02:00:15;97047.38;;;1.12;79.76
77043;BME280;65975;53.936;27.540;2023-03-08T02:02:50;97059.03;;;1.27;80.13
77043;BME280;65975;53.936;27.540;2023-03-08T02:05:17;97063.56;;;1.17;80.51
77043;BME280;65975;53.936;27.540;2023-03-08T02:07:43;97050.06;;;1.40;79.42
77043;BME280;65975;53.936;27.540;2023-03-08T02:10:10;97056.84;;;1.43;79.95
77043;BME280;65975;53.936;27.540;2023-03-08T02:12:36;97052.00;;;1.32;80.46
77043;BME280;65975;53.936;27.540;2023-03-08T02:15:04;97045.94;;;1.35;80.54
77043;BME280;65975;53.936;27.540;2023-03-08T02:17:33;97036.50;;;1.34;80.06
77043;BME280;65975;53.936;27.540;2023-03-08T02:20:09;97051.31;;;1.26;80.96
77043;BME280;65975;53.936;27.540;2023-03-08T02:22:40;96891.03;;;0.53;80.52
77043;BME280;65975;53.936;27.540;2023-03-08T02:25:16;97049.06;;;1.46;80.38
77043;BME280;65975;53.936;27.540;2023-03-08T02:27:42;97052.34;;;1.51;80.43
77043;BME280;65975;53.936;27.540;2023-03-08T02:30:10;97051.50;;;1.50;81.00
77043;BME280;65975;53.936;27.540;2023-03-08T02:32:36;97052.31;;;1.52;80.90
77043;BME280;65975;53.936;27.540;2023-03-08T02:35:01;97040.59;;;1.70;79.58
77043;BME280;65975;53.936;27.540;2023-03-08T02:37:27;97037.75;;;1.50;80.64
77043;BME280;65975;53.936;27.540;2023-03-08T02:39:52;97054.66;;;1.60;80.60
77043;BME280;65975;53.936;27.540;2023-03-08T02:42:18;97046.66;;;1.69;80.29
77043;BME280;65975;53.936;27.540;2023-03-08T02:44:43;97014.81;;;1.41;81.01
77043;BME280;65975;53.936;27.540;2023-03-08T02:47:09;96973.06;;;1.28;81.26
77043;BME280;65975;53.936;27.540;2023-03-08T02:49:34;97042.38;;;1.39;81.63
77043;BME280;65975;53.936;27.540;2023-03-08T02:52:00;97035.59;;;1.66;81.75
77043;BME280;65975;53.936;27.540;2023-03-08T02:54:26;97033.25;;;1.56;81.12
77043;BME280;65975;53.936;27.540;2023-03-08T02:56:52;97037.00;;;1.76;81.08
77043;BME280;65975;53.936;27.540;2023-03-08T02:59:17;97030.47;;;1.64;81.86
77043;BME280;65975;53.936;27.540;2023-03-08T03:01:42;97034.38;;;1.48;82.20
77043;BME280;65975;53.936;27.540;2023-03-08T03:04:08;97027.81;;;1.67;81.62
77043;BME280;65975;53.936;27.540;2023-03-08T03:06:33;96984.28;;;1.27;82.49
77043;BME280;65975;53.936;27.540;2023-03-08T03:08:59;96940.94;;;0.79;82.81
77043;BME280;65975;53.936;27.540;2023-03-08T03:11:24;97024.91;;;1.48;83.08
77043;BME280;65975;53.936;27.540;2023-03-08T03:13:58;97033.56;;;1.46;82.67
77043;BME280;65975;53.936;27.540;2023-03-08T03:16:24;97023.91;;;1.54;82.97
77043;BME280;65975;53.936;27.540;2023-03-08T03:18:54;97023.13;;;1.50;82.57
77043;BME280;65975;53.936;27.540;2023-03-08T03:21:21;97007.66;;;1.50;82.63
77043;BME280;65975;53.936;27.540;2023-03-08T03:23:47;96990.81;;;1.39;82.45
77043;BME280;65975;53.936;27.540;2023-03-08T03:26:16;97005.59;;;1.32;83.22
77043;BME280;65975;53.936;27.540;2023-03-08T03:28:42;97024.75;;;1.54;82.79
77043;BME280;65975;53.936;27.540;2023-03-08T03:31:14;97018.03;;;1.49;83.06
77043;BME280;65975;53.936;27.540;2023-03-08T03:33:40;96918.25;;;0.92;83.25
77043;BME280;65975;53.936;27.540;2023-03-08T03:36:07;97015.16;;;1.58;83.49
77043;BME280;65975;53.936;27.540;2023-03-08T03:38:35;97013.69;;;1.49;82.96
77043;BME280;65975;53.936;27.540;2023-03-08T03:41:05;97004.78;;;1.61;83.25
77043;BME280;65975;53.936;27.540;2023-03-08T03:43:31;96991.50;;;1.44;83.36
77043;BME280;65975;53.936;27.540;2023-03-08T03:45:59;97008.28;;;1.58;83.05
77043;BME280;65975;53.936;27.540;2023-03-08T03:48:26;97000.22;;;1.69;82.63
77043;BME280;65975;53.936;27.540;2023-03-08T03:51:05;96998.19;;;1.51;82.72
77043;BME280;65975;53.936;27.540;2023-03-08T03:53:33;96997.56;;;1.43;83.71
77043;BME280;65975;53.936;27.540;2023-03-08T03:56:07;96990.94;;;1.64;82.73
77043;BME280;65975;53.936;27.540;2023-03-08T03:58:33;96987.44;;;1.66;83.42
77043;BME280;65975;53.936;27.540;2023-03-08T04:00:58;96988.47;;;1.60;82.81
77043;BME280;65975;53.936;27.540;2023-03-08T04:03:24;96990.81;;;1.68;83.24
77043;BME280;65975;53.936;27.540;2023-03-08T04:05:50;96977.34;;;1.86;82.68
77043;BME280;65975;53.936;27.540;2023-03-08T04:08:15;96872.75;;;0.91;82.68
77043;BME280;65975;53.936;27.540;2023-03-08T04:10:41;96984.50;;;1.77;82.72
77043;BME280;65975;53.936;27.540;2023-03-08T04:13:06;96900.72;;;1.34;83.04
77043;BME280;65975;53.936;27.540;2023-03-08T04:15:32;96985.78;;;1.91;81.95
77043;BME280;65975;53.936;27.540;2023-03-08T04:17:57;96988.16;;;1.70;82.85
77043;BME280;65975;53.936;27.540;2023-03-08T04:20:23;96965.75;;;1.72;82.93
77043;BME280;65975;53.936;27.540;2023-03-08T04:22:49;96979.38;;;1.47;82.89
77043;BME280;65975;53.936;27.540;2023-03-08T04:25:14;96994.16;;;1.70;83.17
77043;BME280;65975;53.936;27.540;2023-03-08T04:27:40;96939.75;;;1.50;83.48
77043;BME280;65975;53.936;27.540;2023-03-08T04:30:06;96953.66;;;1.74;82.92
77043;BME280;65975;53.936;27.540;2023-03-08T04:32:32;96972.50;;;1.76;82.87
77043;BME280;65975;53.936;27.540;2023-03-08T04:34:57;96954.94;;;1.60;83.37
77043;BME280;65975;53.936;27.540;2023-03-08T04:37:24;96958.47;;;1.56;83.16
77043;BME280;65975;53.936;27.540;2023-03-08T04:39:49;96978.91;;;1.63;82.94
77043;BME280;65975;53.936;27.540;2023-03-08T04:42:15;96959.78;;;1.70;82.99
77043;BME280;65975;53.936;27.540;2023-03-08T04:44:40;96967.81;;;1.88;82.64
77043;BME280;65975;53.936;27.540;2023-03-08T04:47:06;96957.25;;;1.96;82.17
77043;BME280;65975;53.936;27.540;2023-03-08T04:49:31;96968.47;;;1.95;82.25
77043;BME280;65975;53.936;27.540;2023-03-08T04:51:56;96961.69;;;1.92;81.87
77043;BME280;65975;53.936;27.540;2023-03-08T04:54:22;96814.41;;;1.18;81.80
77043;BME280;65975;53.936;27.540;2023-03-08T04:56:48;96961.84;;;1.88;81.96
77043;BME280;65975;53.936;27.540;2023-03-08T04:59:13;96969.03;;;1.77;83.07
77043;BME280;65975;53.936;27.540;2023-03-08T05:01:39;96963.69;;;1.83;82.19
77043;BME280;65975;53.936;27.540;2023-03-08T05:04:09;96943.75;;;1.60;82.84
77043;BME280;65975;53.936;27.540;2023-03-08T05:06:35;96940.22;;;1.63;82.38
77043;BME280;65975;53.936;27.540;2023-03-08T05:09:00;96958.53;;;1.83;82.54
77043;BME280;65975;53.936;27.540;2023-03-08T05:11:27;96948.31;;;1.80;81.84
77043;BME280;65975;53.936;27.540;2023-03-08T05:13:55;96965.28;;;1.87;82.75
77043;BME280;65975;53.936;27.540;2023-03-08T05:16:21;96970.69;;;2.07;82.24
77043;BME280;65975;53.936;27.540;2023-03-08T05:18:46;96963.41;;;1.92;82.22
77043;BME280;65975;53.936;27.540;2023-03-08T05:21:14;96959.63;;;2.02;81.85
77043;BME280;65975;53.936;27.540;2023-03-08T05:23:40;96959.94;;;1.93;81.72
77043;BME280;65975;53.936;27.540;2023-03-08T05:26:08;96787.25;;;0.80;81.94
77043;BME280;65975;53.936;27.540;2023-03-08T05:28:35;96968.91;;;2.08;81.62
77043;BME280;65975;53.936;27.540;2023-03-08T05:33:32;96954.72;;;2.21;81.46
77043;BME280;65975;53.936;27.540;2023-03-08T05:35:58;96966.34;;;2.34;81.13
77043;BME280;65975;53.936;27.540;2023-03-08T05:38:24;96963.38;;;1.93;81.09
77043;BME280;65975;53.936;27.540;2023-03-08T05:40:50;96974.84;;;2.11;82.24
77043;BME280;65975;53.936;27.540;2023-03-08T05:43:16;96965.50;;;2.33;80.79
77043;BME280;65975;53.936;27.540;2023-03-08T05:45:42;96974.69;;;2.16;81.07
77043;BME280;65975;53.936;27.540;2023-03-08T05:48:08;96932.28;;;2.23;80.60
77043;BME280;65975;53.936;27.540;2023-03-08T05:50:36;96963.88;;;2.31;80.03
77043;BME280;65975;53.936;27.540;2023-03-08T05:53:02;96874.59;;;1.73;80.10
77043;BME280;65975;53.936;27.540;2023-03-08T05:55:28;96983.19;;;2.19;80.64
77043;BME280;65975;53.936;27.540;2023-03-08T05:57:53;96978.28;;;2.12;80.95
77043;BME280;65975;53.936;27.540;2023-03-08T06:00:19;96988.94;;;2.27;81.11
77043;BME280;65975;53.936;27.540;2023-03-08T06:02:44;96987.31;;;2.25;81.07
77043;BME280;65975;53.936;27.540;2023-03-08T06:05:10;96909.94;;;1.69;80.53
77043;BME280;65975;53.936;27.540;2023-03-08T06:07:35;97001.31;;;1.90;82.23
77043;BME280;65975;53.936;27.540;2023-03-08T06:10:01;97004.59;;;2.23;81.58
77043;BME280;65975;53.936;27.540;2023-03-08T06:12:26;97014.09;;;1.94;82.22
77043;BME280;65975;53.936;27.540;2023-03-08T06:14:52;97012.78;;;2.08;81.39
77043;BME280;65975;53.936;27.540;2023-03-08T06:17:18;97038.56;;;1.81;81.52
77043;BME280;65975;53.936;27.540;2023-03-08T06:19:45;97073.78;;;1.53;83.61
77043;BME280;65975;53.936;27.540;2023-03-08T06:22:10;97069.16;;;1.02;81.69
77043;BME280;65975;53.936;27.540;2023-03-08T06:24:36;97068.88;;;0.79;79.01
77043;BME280;65975;53.936;27.540;2023-03-08T06:27:01;97085.16;;;0.81;74.81
77043;BME280;65975;53.936;27.540;2023-03-08T06:29:27;97079.72;;;0.92;72.91
77043;BME280;65975;53.936;27.540;2023-03-08T06:31:52;97083.59;;;0.74;69.55
77043;BME280;65975;53.936;27.540;2023-03-08T06:34:18;97077.44;;;0.79;67.05
77043;BME280;65975;53.936;27.540;2023-03-08T06:36:44;97079.94;;;1.16;67.54
77043;BME280;65975;53.936;27.540;2023-03-08T06:39:09;97070.69;;;1.09;64.18
77043;BME280;65975;53.936;27.540;2023-03-08T06:41:35;97073.94;;;1.16;65.56
77043;BME280;65975;53.936;27.540;2023-03-08T06:44:00;97082.41;;;1.52;64.71
77043;BME280;65975;53.936;27.540;2023-03-08T06:46:26;97083.25;;;1.22;65.05
77043;BME280;65975;53.936;27.540;2023-03-08T06:48:51;97080.72;;;1.18;63.73
77043;BME280;65975;53.936;27.540;2023-03-08T06:51:19;97079.47;;;1.33;63.95
77043;BME280;65975;53.936;27.540;2023-03-08T06:53:46;97083.63;;;1.06;64.02
77043;BME280;65975;53.936;27.540;2023-03-08T06:56:13;97086.66;;;1.22;65.17
77043;BME280;65975;53.936;27.540;2023-03-08T06:58:39;97025.19;;;0.76;64.74
77043;BME280;65975;53.936;27.540;2023-03-08T07:01:05;97076.25;;;0.93;66.47
77043;BME280;65975;53.936;27.540;2023-03-08T07:03:32;97105.28;;;0.99;67.79
77043;BME280;65975;53.936;27.540;2023-03-08T07:06:04;97055.16;;;0.78;68.93
77043;BME280;65975;53.936;27.540;2023-03-08T07:08:31;97085.38;;;1.06;68.81
77043;BME280;65975;53.936;27.540;2023-03-08T07:10:56;97096.44;;;1.09;70.23
77043;BME280;65975;53.936;27.540;2023-03-08T07:13:23;97102.91;;;1.24;70.82
77043;BME280;65975;53.936;27.540;2023-03-08T07:15:49;97115.56;;;1.01;72.44
77043;BME280;65975;53.936;27.540;2023-03-08T07:18:15;97053.88;;;0.61;73.47
77043;BME280;65975;53.936;27.540;2023-03-08T07:20:41;97110.88;;;0.83;74.21
77043;BME280;65975;53.936;27.540;2023-03-08T07:23:06;97122.97;;;0.79;75.11
77043;BME280;65975;53.936;27.540;2023-03-08T07:25:32;97121.88;;;0.89;75.33
77043;BME280;65975;53.936;27.540;2023-03-08T07:27:58;97125.47;;;0.82;76.19
77043;BME280;65975;53.936;27.540;2023-03-08T07:30:25;97146.03;;;1.17;75.11
77043;BME280;65975;53.936;27.540;2023-03-08T07:32:53;97133.78;;;0.93;79.16
77043;BME280;65975;53.936;27.540;2023-03-08T07:35:20;97119.53;;;1.14;75.18
77043;BME280;65975;53.936;27.540;2023-03-08T07:37:46;97071.38;;;0.82;75.01
77043;BME280;65975;53.936;27.540;2023-03-08T07:40:13;97068.97;;;1.08;73.86
77043;BME280;65975;53.936;27.540;2023-03-08T07:42:40;97128.91;;;1.49;72.82
77043;BME280;65975;53.936;27.540;2023-03-08T07:45:06;97111.94;;;1.71;73.13
77043;BME280;65975;53.936;27.540;2023-03-08T07:47:32;97072.28;;;1.44;71.82
77043;BME280;65975;53.936;27.540;2023-03-08T07:49:57;97105.38;;;1.61;70.77
77043;BME280;65975;53.936;27.540;2023-03-08T07:52:27;97099.84;;;2.03;70.18
77043;BME280;65975;53.936;27.540;2023-03-08T07:54:53;97110.06;;;2.07;69.77
77043;BME280;65975;53.936;27.540;2023-03-08T07:57:19;97104.81;;;1.81;68.54
77043;BME280;65975;53.936;27.540;2023-03-08T07:59:44;97047.72;;;1.31;68.80
77043;BME280;65975;53.936;27.540;2023-03-08T08:02:11;97105.50;;;1.86;68.54
77043;BME280;65975;53.936;27.540;2023-03-08T08:04:38;97112.78;;;1.72;69.08
77043;BME280;65975;53.936;27.540;2023-03-08T08:07:03;97092.00;;;2.07;67.88
77043;BME280;65975;53.936;27.540;2023-03-08T08:09:30;97113.25;;;1.86;67.06
77043;BME280;65975;53.936;27.540;2023-03-08T08:11:56;97106.44;;;2.13;67.46
77043;BME280;65975;53.936;27.540;2023-03-08T08:14:21;97103.47;;;1.97;68.47
77043;BME280;65975;53.936;27.540;2023-03-08T08:16:47;97099.38;;;2.19;68.03
77043;BME280;65975;53.936;27.540;2023-03-08T08:19:12;97104.13;;;1.74;68.11
77043;BME280;65975;53.936;27.540;2023-03-08T08:21:39;97106.50;;;2.11;68.23
77043;BME280;65975;53.936;27.540;2023-03-08T08:24:05;97096.06;;;2.14;67.95
77043;BME280;65975;53.936;27.540;2023-03-08T08:26:31;97086.28;;;2.25;67.27
77043;BME280;65975;53.936;27.540;2023-03-08T08:28:57;96969.72;;;1.25;68.26
77043;BME280;65975;53.936;27.540;2023-03-08T08:31:26;97081.59;;;2.09;67.66
77043;BME280;65975;53.936;27.540;2023-03-08T08:33:53;97086.84;;;2.07;68.90
77043;BME280;65975;53.936;27.540;2023-03-08T08:36:19;97078.19;;;2.36;68.68
77043;BME280;65975;53.936;27.540;2023-03-08T08:38:45;97094.34;;;1.85;68.28
77043;BME280;65975;53.936;27.540;2023-03-08T08:41:12;97088.38;;;1.83;67.58
77043;BME280;65975;53.936;27.540;2023-03-08T08:43:42;97098.84;;;2.36;68.46
77043;BME280;65975;53.936;27.540;2023-03-08T08:46:08;97089.22;;;2.13;68.11
77043;BME280;65975;53.936;27.540;2023-03-08T08:48:33;97094.75;;;2.29;68.22
77043;BME280;65975;53.936;27.540;2023-03-08T08:51:00;97109.31;;;2.31;68.23
77043;BME280;65975;53.936;27.540;2023-03-08T08:53:26;97098.47;;;2.20;69.05
77043;BME280;65975;53.936;27.540;2023-03-08T08:55:52;97105.50;;;2.15;68.54
77043;BME280;65975;53.936;27.540;2023-03-08T08:58:17;97097.16;;;2.07;69.36
77043;BME280;65975;53.936;27.540;2023-03-08T09:00:43;97087.19;;;2.23;69.13
77043;BME280;65975;53.936;27.540;2023-03-08T09:03:09;97079.72;;;2.41;68.87
77043;BME280;65975;53.936;27.540;2023-03-08T09:05:41;97077.91;;;2.45;68.15
77043;BME280;65975;53.936;27.540;2023-03-08T09:08:07;97078.22;;;2.34;68.41
77043;BME280;65975;53.936;27.540;2023-03-08T09:10:35;97089.09;;;2.46;68.03
77043;BME280;65975;53.936;27.540;2023-03-08T09:13:01;97078.63;;;2.49;67.59
77043;BME280;65975;53.936;27.540;2023-03-08T09:15:27;97081.16;;;2.78;66.69
77043;BME280;65975;53.936;27.540;2023-03-08T09:17:52;97086.59;;;2.95;66.06
77043;BME280;65975;53.936;27.540;2023-03-08T09:20:19;97089.78;;;3.03;66.63
77043;BME280;65975;53.936;27.540;2023-03-08T09:22:45;96948.38;;;2.05;65.94
77043;BME280;65975;53.936;27.540;2023-03-08T09:25:11;97092.03;;;3.12;66.47
77043;BME280;65975;53.936;27.540;2023-03-08T09:27:38;97029.94;;;2.10;65.85
77043;BME280;65975;53.936;27.540;2023-03-08T09:30:07;97120.88;;;3.00;66.96
77043;BME280;65975;53.936;27.540;2023-03-08T09:32:33;97096.72;;;3.01;65.97
77043;BME280;65975;53.936;27.540;2023-03-08T09:34:59;97097.31;;;3.09;65.18
77043;BME280;65975;53.936;27.540;2023-03-08T09:37:24;97095.13;;;3.24;65.02
77043;BME280;65975;53.936;27.540;2023-03-08T09:39:50;97087.03;;;3.33;64.94
77043;BME280;65975;53.936;27.540;2023-03-08T09:42:28;97092.13;;;3.59;64.49
77043;BME280;65975;53.936;27.540;2023-03-08T09:45:11;97105.47;;;3.48;64.38
77043;BME280;65975;53.936;27.540;2023-03-08T09:48:12;97102.75;;;3.27;64.09
77043;BME280;65975;53.936;27.540;2023-03-08T09:50:48;97022.91;;;2.93;63.82
77043;BME280;65975;53.936;27.540;2023-03-08T09:53:17;97112.50;;;3.18;63.89
77043;BME280;65975;53.936;27.540;2023-03-08T09:59:10;97113.28;;;2.69;65.10
77043;BME280;65975;53.936;27.540;2023-03-08T10:01:52;97112.59;;;2.64;64.16
77043;BME280;65975;53.936;27.540;2023-03-08T10:10:22;97120.16;;;2.70;60.68
77043;BME280;65975;53.936;27.540;2023-03-08T10:15:42;97111.16;;;5.13;57.96
77043;BME280;65975;53.936;27.540;2023-03-08T10:18:26;97107.63;;;3.11;57.65
77043;BME280;65975;53.936;27.540;2023-03-08T10:20:54;97080.34;;;3.27;59.27
77043;BME280;65975;53.936;27.540;2023-03-08T10:23:22;97132.44;;;3.41;61.18
77043;BME280;65975;53.936;27.540;2023-03-08T10:25:49;97048.91;;;2.63;59.60
77043;BME280;65975;53.936;27.540;2023-03-08T10:28:21;97108.91;;;3.24;58.17
77043;BME280;65975;53.936;27.540;2023-03-08T10:31:01;97086.81;;;3.14;57.89
77043;BME280;65975;53.936;27.540;2023-03-08T10:33:34;97096.59;;;3.55;58.28
77043;BME280;65975;53.936;27.540;2023-03-08T10:38:32;97129.22;;;4.29;56.47
77043;BME280;65975;53.936;27.540;2023-03-08T10:41:04;97069.34;;;4.59;53.47
77043;BME280;65975;53.936;27.540;2023-03-08T10:43:38;97104.88;;;5.19;53.90
77043;BME280;65975;53.936;27.540;2023-03-08T10:46:10;97105.13;;;4.49;52.22
77043;BME280;65975;53.936;27.540;2023-03-08T10:48:36;97089.94;;;4.83;53.31
77043;BME280;65975;53.936;27.540;2023-03-08T10:51:04;97069.47;;;5.38;51.02
77043;BME280;65975;53.936;27.540;2023-03-08T10:53:31;97099.66;;;6.19;50.71
77043;BME280;65975;53.936;27.540;2023-03-08T10:55:59;97057.78;;;5.48;49.69
77043;BME280;65975;53.936;27.540;2023-03-08T10:58:36;97107.78;;;5.72;49.90
77043;BME280;65975;53.936;27.540;2023-03-08T11:01:22;97100.44;;;6.21;47.83
77043;BME280;65975;53.936;27.540;2023-03-08T11:06:25;97060.75;;;5.98;46.31
77043;BME280;65975;53.936;27.540;2023-03-08T11:08:53;97064.53;;;6.29;47.15
77043;BME280;65975;53.936;27.540;2023-03-08T11:11:19;97093.31;;;6.62;46.38
77043;BME280;65975;53.936;27.540;2023-03-08T11:13:49;97092.28;;;6.10;47.41
77043;BME280;65975;53.936;27.540;2023-03-08T11:19:27;97100.16;;;5.89;47.80
77043;BME280;65975;53.936;27.540;2023-03-08T11:35:21;97098.16;;;7.73;43.47
77043;BME280;65975;53.936;27.540;2023-03-08T11:40:36;97086.25;;;7.34;43.63
77043;BME280;65975;53.936;27.540;2023-03-08T11:45:45;97048.63;;;10.00;36.52
77043;BME280;65975;53.936;27.540;2023-03-08T11:56:52;97102.53;;;8.05;40.80
77043;BME280;65975;53.936;27.540;2023-03-08T12:05:01;97094.78;;;8.52;38.95
77043;BME280;65975;53.936;27.540;2023-03-08T12:10:20;97074.31;;;7.65;39.24
77043;BME280;65975;53.936;27.540;2023-03-08T12:12:51;97082.50;;;8.38;36.76
77043;BME280;65975;53.936;27.540;2023-03-08T12:18:11;97034.50;;;6.94;38.16
77043;BME280;65975;53.936;27.540;2023-03-08T12:20:42;97077.69;;;7.82;39.35
77043;BME280;65975;53.936;27.540;2023-03-08T12:23:19;97104.50;;;7.51;39.60
77043;BME280;65975;53.936;27.540;2023-03-08T12:25:53;97101.94;;;6.62;40.72
77043;BME280;65975;53.936;27.540;2023-03-08T12:28:30;97122.53;;;5.72;41.32
77043;BME280;65975;53.936;27.540;2023-03-08T12:33:23;97106.56;;;5.20;43.06
77043;BME280;65975;53.936;27.540;2023-03-08T12:35:51;97113.84;;;5.12;42.82
77043;BME280;65975;53.936;27.540;2023-03-08T12:40:45;97119.28;;;5.26;41.61
77043;BME280;65975;53.936;27.540;2023-03-08T12:45:41;97123.72;;;5.24;38.23
77043;BME280;65975;53.936;27.540;2023-03-08T12:51:02;97130.13;;;4.94;37.11
77043;BME280;65975;53.936;27.540;2023-03-08T12:53:35;97143.78;;;4.55;36.91
77043;BME280;65975;53.936;27.540;2023-03-08T12:56:23;97127.66;;;5.33;35.81
77043;BME280;65975;53.936;27.540;2023-03-08T13:01:42;97140.22;;;5.63;35.45
77043;BME280;65975;53.936;27.540;2023-03-08T13:04:25;97141.63;;;4.66;37.02
77043;BME280;65975;53.936;27.540;2023-03-08T13:09:37;97151.44;;;5.02;35.25
77043;BME280;65975;53.936;27.540;2023-03-08T13:19:53;97160.75;;;6.83;26.65
77043;BME280;65975;53.936;27.540;2023-03-08T13:22:23;97170.94;;;7.41;26.75
77043;BME280;65975;53.936;27.540;2023-03-08T13:30:13;97049.97;;;6.43;27.61
77043;BME280;65975;53.936;27.540;2023-03-08T13:32:42;97165.41;;;6.77;27.47
77043;BME280;65975;53.936;27.540;2023-03-08T13:35:14;97191.13;;;6.46;27.46
77043;BME280;65975;53.936;27.540;2023-03-08T13:37:40;97185.53;;;6.73;28.26
77043;BME280;65975;53.936;27.540;2023-03-08T13:40:17;97146.56;;;6.72;27.78
77043;BME280;65975;53.936;27.540;2023-03-08T13:42:56;97171.13;;;6.66;27.87
77043;BME280;65975;53.936;27.540;2023-03-08T13:45:22;97181.97;;;6.18;28.23
77043;BME280;65975;53.936;27.540;2023-03-08T13:47:48;97144.03;;;5.55;28.30
77043;BME280;65975;53.936;27.540;2023-03-08T13:50:35;97180.63;;;6.10;27.92
77043;BME280;65975;53.936;27.540;2023-03-08T13:53:06;97181.22;;;5.76;28.83
77043;BME280;65975;53.936;27.540;2023-03-08T13:55:40;97198.88;;;6.47;28.75
77043;BME280;65975;53.936;27.540;2023-03-08T13:58:23;97181.56;;;6.27;29.24
77043;BME280;65975;53.936;27.540;2023-03-08T14:03:30;97179.16;;;6.98;28.95
77043;BME280;65975;53.936;27.540;2023-03-08T14:05:57;97197.44;;;5.81;30.35
77043;BME280;65975;53.936;27.540;2023-03-08T14:08:24;97219.81;;;5.43;31.39
77043;BME280;65975;53.936;27.540;2023-03-08T14:10:51;97218.22;;;5.18;31.48
77043;BME280;65975;53.936;27.540;2023-03-08T14:13:21;97204.63;;;4.22;31.95
77043;BME280;65975;53.936;27.540;2023-03-08T14:15:51;97253.69;;;3.77;32.90
77043;BME280;65975;53.936;27.540;2023-03-08T14:18:23;97226.19;;;3.74;33.81
77043;BME280;65975;53.936;27.540;2023-03-08T14:21:05;97199.22;;;3.30;34.27
77043;BME280;65975;53.936;27.540;2023-03-08T14:23:45;97237.91;;;3.33;34.66
77043;BME280;65975;53.936;27.540;2023-03-08T14:31:28;97258.59;;;3.05;34.99
77043;BME280;65975;53.936;27.540;2023-03-08T14:34:01;97236.94;;;2.81;34.84
77043;BME280;65975;53.936;27.540;2023-03-08T14:36:30;97251.34;;;2.90;35.00
77043;BME280;65975;53.936;27.540;2023-03-08T14:38:57;97265.94;;;2.91;34.72
77043;BME280;65975;53.936;27.540;2023-03-08T14:41:35;97224.28;;;2.45;34.84